sensor_id;sensor_type;location;lat;lon;timestamp;P1;durP1;ratioP1;P2;durP2;ratioP2
37087;SDS011;23002;52.676;6.432;2023-08-01T00:00:06;6.25;;;2.63;;
37087;SDS011;23002;52.676;6.432;2023-08-01T00:02:34;3.80;;;2.13;;
37087;SDS011;23002;52.676;6.432;2023-08-01T00:05:02;5.80;;;2.45;;
37087;SDS011;23002;52.676;6.432;2023-08-01T00:07:29;3.92;;;1.98;;
37087;SDS011;23002;52.676;6.432;2023-08-01T00:09:56;6.38;;;2.63;;
37087;SDS011;23002;52.676;6.432;2023-08-01T00:12:23;8.73;;;2.42;;
37087;SDS011;23002;52.676;6.432;2023-08-01T00:14:51;8.15;;;2.15;;
37087;SDS011;23002;52.676;6.432;2023-08-01T00:17:18;3.88;;;1.73;;
37087;SDS011;23002;52.676;6.432;2023-08-01T00:19:45;5.07;;;2.35;;
37087;SDS011;23002;52.676;6.432;2023-08-01T00:22:13;6.57;;;2.13;;
37087;SDS011;23002;52.676;6.432;2023-08-01T00:24:40;4.43;;;2.28;;
37087;SDS011;23002;52.676;6.432;2023-08-01T00:27:07;3.08;;;1.77;;
37087;SDS011;23002;52.676;6.432;2023-08-01T00:29:36;4.55;;;2.40;;
37087;SDS011;23002;52.676;6.432;2023-08-01T00:32:04;3.75;;;1.95;;
37087;SDS011;23002;52.676;6.432;2023-08-01T00:34:31;4.95;;;1.77;;
37087;SDS011;23002;52.676;6.432;2023-08-01T00:36:58;6.47;;;2.40;;
37087;SDS011;23002;52.676;6.432;2023-08-01T00:39:25;5.72;;;1.90;;
37087;SDS011;23002;52.676;6.432;2023-08-01T00:41:52;3.47;;;2.00;;
37087;SDS011;23002;52.676;6.432;2023-08-01T00:44:19;8.27;;;1.98;;
37087;SDS011;23002;52.676;6.432;2023-08-01T00:46:47;3.28;;;1.60;;
37087;SDS011;23002;52.676;6.432;2023-08-01T00:49:14;3.50;;;1.60;;
37087;SDS011;23002;52.676;6.432;2023-08-01T00:51:42;3.80;;;1.50;;
37087;SDS011;23002;52.676;6.432;2023-08-01T00:54:09;3.85;;;1.77;;
37087;SDS011;23002;52.676;6.432;2023-08-01T00:56:36;4.80;;;1.50;;
37087;SDS011;23002;52.676;6.432;2023-08-01T00:59:04;6.65;;;1.70;;
37087;SDS011;23002;52.676;6.432;2023-08-01T01:01:32;5.07;;;2.20;;
37087;SDS011;23002;52.676;6.432;2023-08-01T01:03:59;6.78;;;1.80;;
37087;SDS011;23002;52.676;6.432;2023-08-01T01:06:34;6.70;;;2.28;;
37087;SDS011;23002;52.676;6.432;2023-08-01T01:09:13;7.95;;;2.67;;
37087;SDS011;23002;52.676;6.432;2023-08-01T01:11:41;6.00;;;2.22;;
37087;SDS011;23002;52.676;6.432;2023-08-01T01:14:08;3.92;;;1.80;;
37087;SDS011;23002;52.676;6.432;2023-08-01T01:16:36;6.47;;;2.83;;
37087;SDS011;23002;52.676;6.432;2023-08-01T01:19:06;4.45;;;2.38;;
37087;SDS011;23002;52.676;6.432;2023-08-01T01:21:37;8.60;;;2.40;;
37087;SDS011;23002;52.676;6.432;2023-08-01T01:24:05;5.65;;;2.70;;
37087;SDS011;23002;52.676;6.432;2023-08-01T01:26:34;4.95;;;2.58;;
37087;SDS011;23002;52.676;6.432;2023-08-01T01:29:02;5.38;;;2.38;;
37087;SDS011;23002;52.676;6.432;2023-08-01T01:31:30;8.35;;;2.53;;
37087;SDS011;23002;52.676;6.432;2023-08-01T01:33:57;8.18;;;1.92;;
37087;SDS011;23002;52.676;6.432;2023-08-01T01:36:25;4.43;;;2.58;;
37087;SDS011;23002;52.676;6.432;2023-08-01T01:38:52;5.72;;;2.17;;
37087;SDS011;23002;52.676;6.432;2023-08-01T01:41:19;3.17;;;1.92;;
37087;SDS011;23002;52.676;6.432;2023-08-01T01:43:46;6.47;;;1.98;;
37087;SDS011;23002;52.676;6.432;2023-08-01T01:46:13;7.80;;;2.35;;
37087;SDS011;23002;52.676;6.432;2023-08-01T01:48:41;4.38;;;2.20;;
37087;SDS011;23002;52.676;6.432;2023-08-01T01:51:08;8.73;;;1.92;;
37087;SDS011;23002;52.676;6.432;2023-08-01T01:53:35;8.68;;;2.50;;
37087;SDS011;23002;52.676;6.432;2023-08-01T01:56:02;6.40;;;2.22;;
37087;SDS011;23002;52.676;6.432;2023-08-01T01:58:30;4.32;;;2.15;;
37087;SDS011;23002;52.676;6.432;2023-08-01T02:00:57;6.07;;;1.80;;
37087;SDS011;23002;52.676;6.432;2023-08-01T02:03:24;5.68;;;2.42;;
37087;SDS011;23002;52.676;6.432;2023-08-01T02:05:51;7.47;;;2.53;;
37087;SDS011;23002;52.676;6.432;2023-08-01T02:08:19;4.20;;;2.05;;
37087;SDS011;23002;52.676;6.432;2023-08-01T02:10:46;7.30;;;2.35;;
37087;SDS011;23002;52.676;6.432;2023-08-01T02:13:14;9.60;;;2.58;;
37087;SDS011;23002;52.676;6.432;2023-08-01T02:15:41;5.63;;;2.25;;
37087;SDS011;23002;52.676;6.432;2023-08-01T02:18:08;4.90;;;2.40;;
37087;SDS011;23002;52.676;6.432;2023-08-01T02:20:36;3.85;;;1.75;;
37087;SDS011;23002;52.676;6.432;2023-08-01T02:23:04;3.95;;;2.22;;
37087;SDS011;23002;52.676;6.432;2023-08-01T02:25:31;7.43;;;2.05;;
37087;SDS011;23002;52.676;6.432;2023-08-01T02:27:58;6.10;;;2.10;;
37087;SDS011;23002;52.676;6.432;2023-08-01T02:30:25;5.03;;;2.22;;
37087;SDS011;23002;52.676;6.432;2023-08-01T02:32:53;5.55;;;2.30;;
37087;SDS011;23002;52.676;6.432;2023-08-01T02:35:20;5.15;;;2.58;;
37087;SDS011;23002;52.676;6.432;2023-08-01T02:37:47;7.85;;;2.50;;
37087;SDS011;23002;52.676;6.432;2023-08-01T02:40:15;4.60;;;2.60;;
37087;SDS011;23002;52.676;6.432;2023-08-01T02:42:42;6.35;;;2.53;;
37087;SDS011;23002;52.676;6.432;2023-08-01T02:45:09;6.57;;;2.58;;
37087;SDS011;23002;52.676;6.432;2023-08-01T02:47:36;5.22;;;1.92;;
37087;SDS011;23002;52.676;6.432;2023-08-01T02:50:04;7.13;;;2.22;;
37087;SDS011;23002;52.676;6.432;2023-08-01T02:52:31;6.05;;;2.55;;
37087;SDS011;23002;52.676;6.432;2023-08-01T02:54:58;3.33;;;1.80;;
37087;SDS011;23002;52.676;6.432;2023-08-01T02:57:26;9.48;;;2.20;;
37087;SDS011;23002;52.676;6.432;2023-08-01T02:59:53;4.60;;;1.95;;
37087;SDS011;23002;52.676;6.432;2023-08-01T03:02:20;7.80;;;2.50;;
37087;SDS011;23002;52.676;6.432;2023-08-01T03:04:47;4.78;;;1.88;;
37087;SDS011;23002;52.676;6.432;2023-08-01T03:07:15;4.20;;;1.95;;
37087;SDS011;23002;52.676;6.432;2023-08-01T03:09:42;6.68;;;2.13;;
37087;SDS011;23002;52.676;6.432;2023-08-01T03:12:09;8.45;;;2.15;;
37087;SDS011;23002;52.676;6.432;2023-08-01T03:14:36;4.82;;;2.03;;
37087;SDS011;23002;52.676;6.432;2023-08-01T03:17:03;5.75;;;1.67;;
37087;SDS011;23002;52.676;6.432;2023-08-01T03:19:30;4.10;;;2.00;;
37087;SDS011;23002;52.676;6.432;2023-08-01T03:21:57;5.47;;;2.30;;
37087;SDS011;23002;52.676;6.432;2023-08-01T03:24:25;4.13;;;2.35;;
37087;SDS011;23002;52.676;6.432;2023-08-01T03:26:52;5.90;;;2.63;;
37087;SDS011;23002;52.676;6.432;2023-08-01T03:29:20;7.10;;;2.50;;
37087;SDS011;23002;52.676;6.432;2023-08-01T03:31:47;6.90;;;1.65;;
37087;SDS011;23002;52.676;6.432;2023-08-01T03:34:14;4.50;;;1.60;;
37087;SDS011;23002;52.676;6.432;2023-08-01T03:36:41;6.70;;;1.92;;
37087;SDS011;23002;52.676;6.432;2023-08-01T03:39:08;4.63;;;2.20;;
37087;SDS011;23002;52.676;6.432;2023-08-01T03:41:36;8.27;;;2.33;;
37087;SDS011;23002;52.676;6.432;2023-08-01T03:44:03;4.93;;;2.05;;
37087;SDS011;23002;52.676;6.432;2023-08-01T03:46:30;3.38;;;1.77;;
37087;SDS011;23002;52.676;6.432;2023-08-01T03:48:58;7.88;;;2.08;;
37087;SDS011;23002;52.676;6.432;2023-08-01T03:51:25;5.80;;;2.45;;
37087;SDS011;23002;52.676;6.432;2023-08-01T03:53:52;4.10;;;1.90;;
37087;SDS011;23002;52.676;6.432;2023-08-01T03:56:37;4.45;;;2.20;;
37087;SDS011;23002;52.676;6.432;2023-08-01T03:59:05;2.20;;;1.33;;
37087;SDS011;23002;52.676;6.432;2023-08-01T04:01:33;5.32;;;2.15;;
37087;SDS011;23002;52.676;6.432;2023-08-01T04:04:00;2.88;;;1.30;;
37087;SDS011;23002;52.676;6.432;2023-08-01T04:06:28;1.92;;;0.90;;
37087;SDS011;23002;52.676;6.432;2023-08-01T04:08:55;0.68;;;0.63;;
37087;SDS011;23002;52.676;6.432;2023-08-01T04:11:22;3.50;;;1.00;;
37087;SDS011;23002;52.676;6.432;2023-08-01T04:13:50;1.75;;;0.80;;
37087;SDS011;23002;52.676;6.432;2023-08-01T04:16:17;2.75;;;1.17;;
37087;SDS011;23002;52.676;6.432;2023-08-01T04:18:44;2.33;;;0.85;;
37087;SDS011;23002;52.676;6.432;2023-08-01T04:21:12;1.38;;;0.80;;
37087;SDS011;23002;52.676;6.432;2023-08-01T04:23:40;1.90;;;1.02;;
37087;SDS011;23002;52.676;6.432;2023-08-01T04:26:08;1.88;;;1.05;;
37087;SDS011;23002;52.676;6.432;2023-08-01T04:28:35;1.45;;;0.82;;
37087;SDS011;23002;52.676;6.432;2023-08-01T04:31:02;2.67;;;0.70;;
37087;SDS011;23002;52.676;6.432;2023-08-01T04:33:29;1.23;;;0.80;;
37087;SDS011;23002;52.676;6.432;2023-08-01T04:35:56;1.75;;;0.77;;
37087;SDS011;23002;52.676;6.432;2023-08-01T04:38:24;1.77;;;0.60;;
37087;SDS011;23002;52.676;6.432;2023-08-01T04:40:51;1.67;;;0.70;;
37087;SDS011;23002;52.676;6.432;2023-08-01T04:43:18;1.75;;;0.77;;
37087;SDS011;23002;52.676;6.432;2023-08-01T04:45:45;1.83;;;0.95;;
37087;SDS011;23002;52.676;6.432;2023-08-01T04:48:12;4.97;;;1.15;;
37087;SDS011;23002;52.676;6.432;2023-08-01T04:50:39;1.40;;;0.90;;
37087;SDS011;23002;52.676;6.432;2023-08-01T04:53:07;4.78;;;0.80;;
37087;SDS011;23002;52.676;6.432;2023-08-01T04:55:34;2.15;;;0.98;;
37087;SDS011;23002;52.676;6.432;2023-08-01T04:58:01;4.53;;;1.00;;
37087;SDS011;23002;52.676;6.432;2023-08-01T05:00:28;4.38;;;0.68;;
37087;SDS011;23002;52.676;6.432;2023-08-01T05:02:55;1.27;;;0.60;;
37087;SDS011;23002;52.676;6.432;2023-08-01T05:05:22;2.05;;;0.85;;
37087;SDS011;23002;52.676;6.432;2023-08-01T05:07:50;3.10;;;0.88;;
37087;SDS011;23002;52.676;6.432;2023-08-01T05:10:17;4.53;;;0.73;;
37087;SDS011;23002;52.676;6.432;2023-08-01T05:12:44;3.22;;;1.08;;
37087;SDS011;23002;52.676;6.432;2023-08-01T05:15:11;2.83;;;1.05;;
37087;SDS011;23002;52.676;6.432;2023-08-01T05:17:39;6.40;;;1.20;;
37087;SDS011;23002;52.676;6.432;2023-08-01T05:20:06;2.63;;;1.20;;
37087;SDS011;23002;52.676;6.432;2023-08-01T05:22:33;4.57;;;2.05;;
37087;SDS011;23002;52.676;6.432;2023-08-01T05:25:01;3.33;;;0.80;;
37087;SDS011;23002;52.676;6.432;2023-08-01T05:27:30;2.65;;;1.02;;
37087;SDS011;23002;52.676;6.432;2023-08-01T05:29:57;2.17;;;1.27;;
37087;SDS011;23002;52.676;6.432;2023-08-01T05:32:24;4.60;;;1.52;;
37087;SDS011;23002;52.676;6.432;2023-08-01T05:34:51;4.43;;;1.05;;
37087;SDS011;23002;52.676;6.432;2023-08-01T05:37:19;2.35;;;1.00;;
37087;SDS011;23002;52.676;6.432;2023-08-01T05:39:46;2.85;;;0.90;;
37087;SDS011;23002;52.676;6.432;2023-08-01T05:42:13;1.77;;;0.98;;
37087;SDS011;23002;52.676;6.432;2023-08-01T05:44:40;2.97;;;0.80;;
37087;SDS011;23002;52.676;6.432;2023-08-01T05:47:07;1.33;;;0.90;;
37087;SDS011;23002;52.676;6.432;2023-08-01T05:49:35;2.75;;;0.90;;
37087;SDS011;23002;52.676;6.432;2023-08-01T05:52:02;1.13;;;0.60;;
37087;SDS011;23002;52.676;6.432;2023-08-01T05:54:29;5.30;;;1.00;;
37087;SDS011;23002;52.676;6.432;2023-08-01T05:56:56;1.15;;;0.60;;
37087;SDS011;23002;52.676;6.432;2023-08-01T05:59:23;3.53;;;1.23;;
37087;SDS011;23002;52.676;6.432;2023-08-01T06:01:51;2.10;;;0.90;;
37087;SDS011;23002;52.676;6.432;2023-08-01T06:04:18;1.45;;;0.90;;
37087;SDS011;23002;52.676;6.432;2023-08-01T06:06:45;1.23;;;0.70;;
37087;SDS011;23002;52.676;6.432;2023-08-01T06:09:12;2.03;;;1.05;;
37087;SDS011;23002;52.676;6.432;2023-08-01T06:11:39;1.50;;;0.85;;
37087;SDS011;23002;52.676;6.432;2023-08-01T06:14:07;1.17;;;0.73;;
37087;SDS011;23002;52.676;6.432;2023-08-01T06:16:34;4.93;;;0.90;;
37087;SDS011;23002;52.676;6.432;2023-08-01T06:19:01;4.47;;;0.95;;
37087;SDS011;23002;52.676;6.432;2023-08-01T06:21:29;2.17;;;1.02;;
37087;SDS011;23002;52.676;6.432;2023-08-01T06:23:56;3.47;;;0.95;;
37087;SDS011;23002;52.676;6.432;2023-08-01T06:26:23;0.63;;;0.30;;
37087;SDS011;23002;52.676;6.432;2023-08-01T06:28:50;0.55;;;0.40;;
37087;SDS011;23002;52.676;6.432;2023-08-01T06:31:22;1.30;;;0.73;;
37087;SDS011;23002;52.676;6.432;2023-08-01T06:33:49;1.55;;;0.77;;
37087;SDS011;23002;52.676;6.432;2023-08-01T06:36:16;1.00;;;0.50;;
37087;SDS011;23002;52.676;6.432;2023-08-01T06:38:43;2.03;;;0.75;;
37087;SDS011;23002;52.676;6.432;2023-08-01T06:41:11;1.63;;;0.75;;
37087;SDS011;23002;52.676;6.432;2023-08-01T06:43:38;1.40;;;0.90;;
37087;SDS011;23002;52.676;6.432;2023-08-01T06:46:05;2.50;;;0.68;;
37087;SDS011;23002;52.676;6.432;2023-08-01T06:48:32;0.88;;;0.60;;
37087;SDS011;23002;52.676;6.432;2023-08-01T06:51:03;1.98;;;0.80;;
37087;SDS011;23002;52.676;6.432;2023-08-01T06:53:30;2.92;;;1.02;;
37087;SDS011;23002;52.676;6.432;2023-08-01T06:55:57;3.05;;;1.25;;
37087;SDS011;23002;52.676;6.432;2023-08-01T06:58:24;1.92;;;1.23;;
37087;SDS011;23002;52.676;6.432;2023-08-01T07:00:51;2.10;;;1.00;;
37087;SDS011;23002;52.676;6.432;2023-08-01T07:03:19;3.15;;;1.33;;
37087;SDS011;23002;52.676;6.432;2023-08-01T07:05:46;3.83;;;1.20;;
37087;SDS011;23002;52.676;6.432;2023-08-01T07:08:13;5.38;;;1.42;;
37087;SDS011;23002;52.676;6.432;2023-08-01T07:10:41;3.90;;;1.20;;
37087;SDS011;23002;52.676;6.432;2023-08-01T07:13:08;2.83;;;1.00;;
37087;SDS011;23002;52.676;6.432;2023-08-01T07:15:35;2.15;;;1.02;;
37087;SDS011;23002;52.676;6.432;2023-08-01T07:18:02;3.65;;;1.23;;
37087;SDS011;23002;52.676;6.432;2023-08-01T07:20:29;3.45;;;1.00;;
37087;SDS011;23002;52.676;6.432;2023-08-01T07:22:57;3.67;;;1.33;;
37087;SDS011;23002;52.676;6.432;2023-08-01T07:25:24;2.22;;;0.85;;
37087;SDS011;23002;52.676;6.432;2023-08-01T07:27:51;2.47;;;0.95;;
37087;SDS011;23002;52.676;6.432;2023-08-01T07:30:18;1.70;;;0.70;;
37087;SDS011;23002;52.676;6.432;2023-08-01T07:32:45;2.83;;;0.70;;
37087;SDS011;23002;52.676;6.432;2023-08-01T07:35:14;2.88;;;0.90;;
37087;SDS011;23002;52.676;6.432;2023-08-01T07:37:41;2.03;;;0.85;;
37087;SDS011;23002;52.676;6.432;2023-08-01T07:40:08;2.00;;;0.70;;
37087;SDS011;23002;52.676;6.432;2023-08-01T07:42:36;2.00;;;0.60;;
37087;SDS011;23002;52.676;6.432;2023-08-01T07:45:03;2.05;;;0.98;;
37087;SDS011;23002;52.676;6.432;2023-08-01T07:47:30;1.23;;;0.65;;
37087;SDS011;23002;52.676;6.432;2023-08-01T07:49:58;1.40;;;0.88;;
37087;SDS011;23002;52.676;6.432;2023-08-01T07:52:25;1.08;;;0.70;;
37087;SDS011;23002;52.676;6.432;2023-08-01T07:54:52;3.05;;;1.10;;
37087;SDS011;23002;52.676;6.432;2023-08-01T07:57:22;3.63;;;1.00;;
37087;SDS011;23002;52.676;6.432;2023-08-01T07:59:49;3.13;;;0.70;;
37087;SDS011;23002;52.676;6.432;2023-08-01T08:02:16;1.80;;;0.70;;
37087;SDS011;23002;52.676;6.432;2023-08-01T08:04:43;2.75;;;1.02;;
37087;SDS011;23002;52.676;6.432;2023-08-01T08:07:10;1.65;;;0.60;;
37087;SDS011;23002;52.676;6.432;2023-08-01T08:09:38;2.63;;;0.95;;
37087;SDS011;23002;52.676;6.432;2023-08-01T08:12:05;1.42;;;0.70;;
37087;SDS011;23002;52.676;6.432;2023-08-01T08:14:32;2.33;;;0.90;;
37087;SDS011;23002;52.676;6.432;2023-08-01T08:16:59;3.05;;;0.60;;
37087;SDS011;23002;52.676;6.432;2023-08-01T08:19:27;3.38;;;0.90;;
37087;SDS011;23002;52.676;6.432;2023-08-01T08:21:55;4.97;;;1.00;;
37087;SDS011;23002;52.676;6.432;2023-08-01T08:24:25;1.85;;;0.93;;
37087;SDS011;23002;52.676;6.432;2023-08-01T08:26:53;5.47;;;1.20;;
37087;SDS011;23002;52.676;6.432;2023-08-01T08:29:21;3.42;;;1.30;;
37087;SDS011;23002;52.676;6.432;2023-08-01T08:31:48;2.13;;;1.20;;
37087;SDS011;23002;52.676;6.432;2023-08-01T08:34:15;7.70;;;1.55;;
37087;SDS011;23002;52.676;6.432;2023-08-01T08:36:46;2.97;;;1.10;;
37087;SDS011;23002;52.676;6.432;2023-08-01T08:39:14;1.63;;;1.20;;
37087;SDS011;23002;52.676;6.432;2023-08-01T08:41:45;2.70;;;1.13;;
37087;SDS011;23002;52.676;6.432;2023-08-01T08:44:15;2.63;;;1.00;;
37087;SDS011;23002;52.676;6.432;2023-08-01T08:46:44;3.80;;;1.20;;
37087;SDS011;23002;52.676;6.432;2023-08-01T08:49:13;6.55;;;1.60;;
37087;SDS011;23002;52.676;6.432;2023-08-01T08:51:42;4.30;;;0.93;;
37087;SDS011;23002;52.676;6.432;2023-08-01T08:54:11;6.10;;;1.63;;
37087;SDS011;23002;52.676;6.432;2023-08-01T08:56:43;5.55;;;1.17;;
37087;SDS011;23002;52.676;6.432;2023-08-01T08:59:12;1.42;;;1.08;;
37087;SDS011;23002;52.676;6.432;2023-08-01T09:01:40;5.70;;;1.20;;
37087;SDS011;23002;52.676;6.432;2023-08-01T09:04:08;2.50;;;1.42;;
37087;SDS011;23002;52.676;6.432;2023-08-01T09:06:44;2.45;;;0.95;;
37087;SDS011;23002;52.676;6.432;2023-08-01T09:09:16;2.05;;;1.20;;
37087;SDS011;23002;52.676;6.432;2023-08-01T09:11:45;1.83;;;0.82;;
37087;SDS011;23002;52.676;6.432;2023-08-01T09:14:12;4.00;;;1.10;;
37087;SDS011;23002;52.676;6.432;2023-08-01T09:16:40;5.60;;;1.42;;
37087;SDS011;23002;52.676;6.432;2023-08-01T09:19:09;4.22;;;1.17;;
37087;SDS011;23002;52.676;6.432;2023-08-01T09:21:39;2.90;;;1.48;;
37087;SDS011;23002;52.676;6.432;2023-08-01T09:24:10;2.70;;;0.98;;
37087;SDS011;23002;52.676;6.432;2023-08-01T09:26:38;3.67;;;1.40;;
37087;SDS011;23002;52.676;6.432;2023-08-01T09:29:06;4.15;;;1.65;;
37087;SDS011;23002;52.676;6.432;2023-08-01T09:31:34;5.15;;;1.48;;
37087;SDS011;23002;52.676;6.432;2023-08-01T09:34:02;3.95;;;1.50;;
37087;SDS011;23002;52.676;6.432;2023-08-01T09:36:33;6.63;;;2.00;;
37087;SDS011;23002;52.676;6.432;2023-08-01T09:39:01;4.80;;;1.40;;
37087;SDS011;23002;52.676;6.432;2023-08-01T09:41:29;3.72;;;1.42;;
37087;SDS011;23002;52.676;6.432;2023-08-01T09:43:57;2.88;;;1.20;;
37087;SDS011;23002;52.676;6.432;2023-08-01T09:46:24;3.42;;;1.70;;
37087;SDS011;23002;52.676;6.432;2023-08-01T09:48:52;3.08;;;1.15;;
37087;SDS011;23002;52.676;6.432;2023-08-01T09:51:19;2.55;;;1.08;;
37087;SDS011;23002;52.676;6.432;2023-08-01T09:56:15;4.75;;;1.30;;
37087;SDS011;23002;52.676;6.432;2023-08-01T09:58:44;2.85;;;1.05;;
37087;SDS011;23002;52.676;6.432;2023-08-01T10:01:13;5.82;;;1.38;;
37087;SDS011;23002;52.676;6.432;2023-08-01T10:03:47;2.20;;;1.20;;
37087;SDS011;23002;52.676;6.432;2023-08-01T10:06:21;1.77;;;0.90;;
37087;SDS011;23002;52.676;6.432;2023-08-01T10:08:49;2.95;;;1.02;;
37087;SDS011;23002;52.676;6.432;2023-08-01T10:11:17;0.80;;;0.57;;
37087;SDS011;23002;52.676;6.432;2023-08-01T10:13:45;2.53;;;0.80;;
37087;SDS011;23002;52.676;6.432;2023-08-01T10:16:12;2.65;;;0.70;;
37087;SDS011;23002;52.676;6.432;2023-08-01T10:18:40;2.67;;;1.15;;
37087;SDS011;23002;52.676;6.432;2023-08-01T10:21:17;4.72;;;1.00;;
37087;SDS011;23002;52.676;6.432;2023-08-01T10:23:45;2.17;;;0.90;;
37087;SDS011;23002;52.676;6.432;2023-08-01T10:26:12;2.17;;;0.73;;
37087;SDS011;23002;52.676;6.432;2023-08-01T10:28:40;1.10;;;0.70;;
37087;SDS011;23002;52.676;6.432;2023-08-01T10:33:36;4.35;;;0.80;;
37087;SDS011;23002;52.676;6.432;2023-08-01T10:36:12;1.00;;;0.70;;
37087;SDS011;23002;52.676;6.432;2023-08-01T10:38:55;2.05;;;1.00;;
37087;SDS011;23002;52.676;6.432;2023-08-01T10:46:48;1.75;;;0.88;;
37087;SDS011;23002;52.676;6.432;2023-08-01T10:49:16;1.35;;;0.80;;
37087;SDS011;23002;52.676;6.432;2023-08-01T10:51:44;6.15;;;1.15;;
37087;SDS011;23002;52.676;6.432;2023-08-01T10:54:45;1.92;;;0.80;;
37087;SDS011;23002;52.676;6.432;2023-08-01T10:57:07;3.75;;;0.80;;
37087;SDS011;23002;52.676;6.432;2023-08-01T10:59:34;3.95;;;1.13;;
37087;SDS011;23002;52.676;6.432;2023-08-01T11:02:02;2.65;;;0.35;;
37087;SDS011;23002;52.676;6.432;2023-08-01T11:04:29;0.55;;;0.50;;
37087;SDS011;23002;52.676;6.432;2023-08-01T11:06:56;0.45;;;0.40;;
37087;SDS011;23002;52.676;6.432;2023-08-01T11:09:26;2.15;;;0.45;;
37087;SDS011;23002;52.676;6.432;2023-08-01T11:11:55;2.55;;;0.57;;
37087;SDS011;23002;52.676;6.432;2023-08-01T11:14:23;0.90;;;0.30;;
37087;SDS011;23002;52.676;6.432;2023-08-01T11:16:50;1.88;;;0.90;;
37087;SDS011;23002;52.676;6.432;2023-08-01T11:19:27;0.75;;;0.50;;
37087;SDS011;23002;52.676;6.432;2023-08-01T11:21:55;2.83;;;0.80;;
37087;SDS011;23002;52.676;6.432;2023-08-01T11:24:24;3.30;;;0.90;;
37087;SDS011;23002;52.676;6.432;2023-08-01T11:26:52;2.75;;;0.70;;
37087;SDS011;23002;52.676;6.432;2023-08-01T11:29:20;4.63;;;0.70;;
37087;SDS011;23002;52.676;6.432;2023-08-01T11:31:57;1.55;;;0.57;;
37087;SDS011;23002;52.676;6.432;2023-08-01T11:34:25;2.17;;;0.77;;
37087;SDS011;23002;52.676;6.432;2023-08-01T11:36:52;2.78;;;0.90;;
37087;SDS011;23002;52.676;6.432;2023-08-01T11:39:20;0.70;;;0.50;;
37087;SDS011;23002;52.676;6.432;2023-08-01T11:41:48;1.05;;;0.40;;
37087;SDS011;23002;52.676;6.432;2023-08-01T11:44:16;1.88;;;0.47;;
37087;SDS011;23002;52.676;6.432;2023-08-01T11:46:43;2.28;;;0.60;;
37087;SDS011;23002;52.676;6.432;2023-08-01T11:49:13;0.80;;;0.65;;
37087;SDS011;23002;52.676;6.432;2023-08-01T11:51:41;1.75;;;0.50;;
37087;SDS011;23002;52.676;6.432;2023-08-01T11:54:09;2.63;;;0.63;;
37087;SDS011;23002;52.676;6.432;2023-08-01T11:56:37;2.92;;;0.60;;
37087;SDS011;23002;52.676;6.432;2023-08-01T11:59:12;2.15;;;0.50;;
37087;SDS011;23002;52.676;6.432;2023-08-01T12:01:44;2.30;;;0.75;;
37087;SDS011;23002;52.676;6.432;2023-08-01T12:04:12;1.92;;;0.73;;
37087;SDS011;23002;52.676;6.432;2023-08-01T12:06:50;2.38;;;0.73;;
37087;SDS011;23002;52.676;6.432;2023-08-01T12:09:18;3.05;;;0.73;;
37087;SDS011;23002;52.676;6.432;2023-08-01T12:11:46;1.90;;;0.60;;
37087;SDS011;23002;52.676;6.432;2023-08-01T12:14:24;0.85;;;0.43;;
37087;SDS011;23002;52.676;6.432;2023-08-01T12:16:51;1.73;;;0.40;;
37087;SDS011;23002;52.676;6.432;2023-08-01T12:19:19;4.47;;;0.98;;
37087;SDS011;23002;52.676;6.432;2023-08-01T12:21:47;1.55;;;0.60;;
37087;SDS011;23002;52.676;6.432;2023-08-01T12:24:15;1.75;;;0.70;;
37087;SDS011;23002;52.676;6.432;2023-08-01T12:26:42;1.30;;;0.68;;
37087;SDS011;23002;52.676;6.432;2023-08-01T12:29:10;1.02;;;0.63;;
37087;SDS011;23002;52.676;6.432;2023-08-01T12:31:38;2.70;;;0.77;;
37087;SDS011;23002;52.676;6.432;2023-08-01T12:34:05;2.70;;;0.50;;
37087;SDS011;23002;52.676;6.432;2023-08-01T12:36:33;3.60;;;0.80;;
37087;SDS011;23002;52.676;6.432;2023-08-01T12:39:00;2.38;;;0.70;;
37087;SDS011;23002;52.676;6.432;2023-08-01T12:41:27;0.77;;;0.52;;
37087;SDS011;23002;52.676;6.432;2023-08-01T12:43:54;1.15;;;0.50;;
37087;SDS011;23002;52.676;6.432;2023-08-01T12:46:21;1.73;;;0.70;;
37087;SDS011;23002;52.676;6.432;2023-08-01T12:48:49;1.75;;;0.63;;
37087;SDS011;23002;52.676;6.432;2023-08-01T12:51:16;0.90;;;0.55;;
37087;SDS011;23002;52.676;6.432;2023-08-01T12:53:43;1.83;;;0.63;;
37087;SDS011;23002;52.676;6.432;2023-08-01T12:56:10;3.30;;;0.50;;
37087;SDS011;23002;52.676;6.432;2023-08-01T12:58:37;1.23;;;0.45;;
37087;SDS011;23002;52.676;6.432;2023-08-01T13:01:05;2.90;;;0.57;;
37087;SDS011;23002;52.676;6.432;2023-08-01T13:03:33;1.15;;;0.52;;
37087;SDS011;23002;52.676;6.432;2023-08-01T13:06:00;2.08;;;0.63;;
37087;SDS011;23002;52.676;6.432;2023-08-01T13:08:27;0.82;;;0.52;;
37087;SDS011;23002;52.676;6.432;2023-08-01T13:10:55;1.55;;;0.50;;
37087;SDS011;23002;52.676;6.432;2023-08-01T13:13:25;2.33;;;0.70;;
37087;SDS011;23002;52.676;6.432;2023-08-01T13:15:53;3.03;;;1.00;;
37087;SDS011;23002;52.676;6.432;2023-08-01T13:18:20;1.08;;;0.57;;
37087;SDS011;23002;52.676;6.432;2023-08-01T13:20:47;1.55;;;0.70;;
37087;SDS011;23002;52.676;6.432;2023-08-01T13:23:14;3.88;;;0.68;;
37087;SDS011;23002;52.676;6.432;2023-08-01T13:25:41;2.13;;;0.43;;
37087;SDS011;23002;52.676;6.432;2023-08-01T13:28:11;1.33;;;0.80;;
37087;SDS011;23002;52.676;6.432;2023-08-01T13:30:38;3.70;;;0.50;;
37087;SDS011;23002;52.676;6.432;2023-08-01T13:33:05;2.53;;;0.63;;
37087;SDS011;23002;52.676;6.432;2023-08-01T13:35:33;1.50;;;0.60;;
37087;SDS011;23002;52.676;6.432;2023-08-01T13:38:00;1.42;;;0.93;;
37087;SDS011;23002;52.676;6.432;2023-08-01T13:40:27;0.90;;;0.43;;
37087;SDS011;23002;52.676;6.432;2023-08-01T13:42:54;3.00;;;0.65;;
37087;SDS011;23002;52.676;6.432;2023-08-01T13:45:21;0.85;;;0.40;;
37087;SDS011;23002;52.676;6.432;2023-08-01T13:47:49;2.40;;;0.70;;
37087;SDS011;23002;52.676;6.432;2023-08-01T13:50:16;1.65;;;0.63;;
37087;SDS011;23002;52.676;6.432;2023-08-01T13:52:43;2.95;;;0.60;;
37087;SDS011;23002;52.676;6.432;2023-08-01T13:55:10;1.27;;;0.80;;
37087;SDS011;23002;52.676;6.432;2023-08-01T13:57:38;1.38;;;0.40;;
37087;SDS011;23002;52.676;6.432;2023-08-01T14:00:05;4.88;;;0.63;;
37087;SDS011;23002;52.676;6.432;2023-08-01T14:02:38;1.95;;;0.57;;
37087;SDS011;23002;52.676;6.432;2023-08-01T14:05:06;1.63;;;0.60;;
37087;SDS011;23002;52.676;6.432;2023-08-01T14:07:36;1.10;;;0.50;;
37087;SDS011;23002;52.676;6.432;2023-08-01T14:10:09;2.72;;;1.15;;
37087;SDS011;23002;52.676;6.432;2023-08-01T14:12:36;2.00;;;0.85;;
37087;SDS011;23002;52.676;6.432;2023-08-01T14:15:04;1.75;;;0.50;;
37087;SDS011;23002;52.676;6.432;2023-08-01T14:17:31;2.13;;;0.77;;
37087;SDS011;23002;52.676;6.432;2023-08-01T14:19:58;2.88;;;0.68;;
37087;SDS011;23002;52.676;6.432;2023-08-01T14:22:25;2.28;;;0.47;;
37087;SDS011;23002;52.676;6.432;2023-08-01T14:24:53;1.50;;;0.30;;
37087;SDS011;23002;52.676;6.432;2023-08-01T14:27:20;0.57;;;0.38;;
37087;SDS011;23002;52.676;6.432;2023-08-01T14:29:47;1.02;;;0.40;;
37087;SDS011;23002;52.676;6.432;2023-08-01T14:32:17;2.10;;;0.90;;
37087;SDS011;23002;52.676;6.432;2023-08-01T14:34:44;3.03;;;0.50;;
37087;SDS011;23002;52.676;6.432;2023-08-01T14:37:11;2.08;;;0.50;;
37087;SDS011;23002;52.676;6.432;2023-08-01T14:39:39;1.17;;;0.30;;
37087;SDS011;23002;52.676;6.432;2023-08-01T14:42:06;0.68;;;0.20;;
37087;SDS011;23002;52.676;6.432;2023-08-01T14:44:33;0.65;;;0.30;;
37087;SDS011;23002;52.676;6.432;2023-08-01T14:47:00;0.47;;;0.28;;
37087;SDS011;23002;52.676;6.432;2023-08-01T14:49:27;1.13;;;0.40;;
37087;SDS011;23002;52.676;6.432;2023-08-01T14:51:56;3.08;;;0.85;;
37087;SDS011;23002;52.676;6.432;2023-08-01T14:54:23;1.77;;;0.30;;
37087;SDS011;23002;52.676;6.432;2023-08-01T14:56:56;2.00;;;0.43;;
37087;SDS011;23002;52.676;6.432;2023-08-01T14:59:23;0.85;;;0.40;;
37087;SDS011;23002;52.676;6.432;2023-08-01T15:01:50;0.20;;;0.20;;